MMMY

General Mariano Escobedo International Airport

Monterrey, Mexico
TAF MMMY 212321Z 2200/2306 11008KT P6SM SCT040 SCT200 TX28/2221Z TN23/2212Z BECMG 2202/2203 10005KT 6SM HZ FM220600 12005KT 6SM HZ SCT015 PROB40 2206/2208 6SM -RA BKN010 FM221000 00000KT 5SM HZ BKN010 TEMPO 2211/2215 2SM BR OVC010 FM221500 34006KT 6SM HZ BKN010 TEMPO 2215/2218 3SM -DZ BR OVC005 FM222000 35010KT P6SM SCT015 BKN200 BECMG 2221/2222 35010KT BKN015 PROB40 2222/2302 6SM -RA
Issued Valid From Valid To
Sep-21 @ 23:21 UTC
(4 hours ago)
Sep-22 @ 00:00 UTC
(4 hours ago)
Sep-23 @ 06:00 UTC
(-1 days ago)
to
to
to
to
to
to
to
to
to
to
to
TAF MMMY 212321Z 2200/2306 11008KT P6SM SCT040 SCT200 TX28/2221Z TN23/2212Z BECMG 2202/2203 10005KT 6SM HZ FM220600 12005KT 6SM HZ SCT015 PROB40 2206/2208 6SM -RA BKN010 FM221000 00000KT 5SM HZ BKN010 TEMPO 2211/2215 2SM BR OVC010 FM221500 34006KT 6SM HZ BKN010 TEMPO 2215/2218 3SM -DZ BR OVC005 FM222000 35010KT P6SM SCT015 BKN200 BECMG 2221/2222 35010KT BKN015 PROB40 2222/2302 6SM -RA
Issued Sep-21 @ 23:21 UTC
(4 hours ago)
Valid From Sep-22 @ 00:00 UTC
(4 hours ago)
Valid To Sep-23 @ 06:00 UTC
(-1 days ago)
-
-
-
-
-
-
-
-
-
-
-